Time;durP1;ratioP1;P1;durP2;ratioP2;P2;SDS_P1;SDS_P2;PMS_P1;PMS_P2;Temp;Humidity;BMP_temperature;BMP_pressure;BME280_temperature;BME280_humidity;BME280_pressure;Samples;Min_cycle;Max_cycle;Signal;HPM_P1;HPM_P2
2020/12/26 00:00:13;;;;;;;4.45;3.17;;;1.90;93.50;;;;;;5011998;28;20037;-76
2020/12/26 00:02:39;;;;;;;6.65;3.83;;;1.90;93.70;;;;;;5010935;28;20030;-77
2020/12/26 00:05:05;;;;;;;3.10;2.70;;;1.80;93.60;;;;;;5011946;28;20026;-76
2020/12/26 00:07:31;;;;;;;4.40;3.22;;;1.80;92.90;;;;;;5011796;28;20026;-78
2020/12/26 00:09:57;;;;;;;5.10;3.72;;;1.80;93.40;;;;;;5010682;28;20045;-77
2020/12/26 00:12:22;;;;;;;4.47;3.22;;;1.80;93.70;;;;;;5011685;28;20053;-76
2020/12/26 00:14:48;;;;;;;4.93;3.90;;;2.00;93.80;;;;;;5011277;28;20030;-77
2020/12/26 00:17:15;;;;;;;3.92;3.03;;;1.90;93.50;;;;;;5011729;28;20500;-77
2020/12/26 00:19:40;;;;;;;3.55;3.13;;;2.00;95.10;;;;;;5010822;28;20030;-77
2020/12/26 00:22:06;;;;;;;6.40;4.07;;;1.90;93.50;;;;;;5010468;28;20500;-77
2020/12/26 00:24:32;;;;;;;5.35;3.60;;;2.00;92.60;;;;;;5011716;28;20034;-77
2020/12/26 00:26:58;;;;;;;5.30;3.20;;;2.00;92.00;;;;;;5011491;28;20053;-77
2020/12/26 00:29:24;;;;;;;4.35;3.10;;;2.00;92.20;;;;;;5011653;28;20123;-76
2020/12/26 00:31:50;;;;;;;12.65;4.03;;;2.00;92.60;;;;;;5011484;28;20022;-76
2020/12/26 00:34:16;;;;;;;6.40;4.32;;;2.10;92.20;;;;;;5011793;28;20347;-78
2020/12/26 00:36:41;;;;;;;5.60;3.90;;;2.20;92.60;;;;;;5010197;28;20467;-76
2020/12/26 00:39:07;;;;;;;7.90;4.20;;;2.20;92.10;;;;;;5011641;28;20037;-76
2020/12/26 00:41:33;;;;;;;7.63;3.70;;;2.00;92.80;;;;;;5011393;28;20440;-76
2020/12/26 00:43:59;;;;;;;5.72;3.67;;;1.90;93.50;;;;;;5011370;28;20101;-76
2020/12/26 00:46:24;;;;;;;6.28;3.80;;;1.80;93.30;;;;;;5010152;28;20452;-77
2020/12/26 00:48:50;;;;;;;7.88;4.40;;;1.90;93.40;;;;;;5011239;28;20083;-77
2020/12/26 00:51:16;;;;;;;5.65;3.78;;;1.90;93.50;;;;;;5011511;28;20097;-76
2020/12/26 00:53:42;;;;;;;5.95;4.40;;;1.80;93.20;;;;;;5011283;28;20360;-77
2020/12/26 00:56:07;;;;;;;6.07;4.25;;;1.90;93.90;;;;;;4993616;28;20022;-76
2020/12/26 00:58:33;;;;;;;8.15;3.92;;;2.00;93.30;;;;;;5009972;28;20033;-77
2020/12/26 01:00:59;;;;;;;7.13;3.80;;;1.90;93.20;;;;;;5011743;28;20021;-77
2020/12/26 01:03:27;;;;;;;3.83;3.33;;;2.00;93.30;;;;;;5011674;28;20033;-77
2020/12/26 01:05:53;;;;;;;4.10;3.53;;;2.10;92.90;;;;;;5011707;28;20033;-77
2020/12/26 01:08:19;;;;;;;3.85;3.08;;;2.00;91.60;;;;;;5011354;28;20026;-78
2020/12/26 01:10:44;;;;;;;4.10;3.10;;;1.90;91.30;;;;;;5011313;28;20161;-77
2020/12/26 01:13:10;;;;;;;4.40;3.00;;;1.80;91.20;;;;;;5011139;28;20295;-77
2020/12/26 01:15:36;;;;;;;5.07;3.47;;;1.90;91.50;;;;;;5011165;28;20111;-76
2020/12/26 01:18:03;;;;;;;4.15;3.38;;;2.10;91.90;;;;;;5009987;28;20018;-76
2020/12/26 01:20:29;;;;;;;5.30;3.45;;;2.10;92.10;;;;;;5010903;28;20026;-76
2020/12/26 01:22:54;;;;;;;6.53;4.22;;;2.20;91.80;;;;;;5011239;28;20034;-76
2020/12/26 01:25:20;;;;;;;5.35;3.45;;;2.10;91.70;;;;;;5009469;28;20058;-77
2020/12/26 01:27:46;;;;;;;3.67;2.72;;;2.10;91.80;;;;;;5011507;28;20032;-77
2020/12/26 01:30:12;;;;;;;4.07;3.15;;;2.00;89.80;;;;;;5013561;28;20026;-77
2020/12/26 01:32:38;;;;;;;5.00;3.47;;;2.00;89.80;;;;;;5015019;28;20105;-77
2020/12/26 01:35:04;;;;;;;4.35;3.20;;;2.00;89.60;;;;;;5013508;28;20490;-77
2020/12/26 01:37:30;;;;;;;7.45;3.15;;;1.90;89.90;;;;;;5013721;28;20053;-77
2020/12/26 01:39:55;;;;;;;3.47;2.70;;;1.80;89.90;;;;;;5013170;28;20401;-76
2020/12/26 01:42:21;;;;;;;2.78;2.42;;;1.60;90.30;;;;;;5013363;28;20038;-77
2020/12/26 01:44:47;;;;;;;3.88;3.17;;;1.50;90.60;;;;;;5013122;28;20392;-77
2020/12/26 01:47:14;;;;;;;4.38;2.97;;;1.50;91.20;;;;;;4997158;28;20109;-76
2020/12/26 01:49:39;;;;;;;3.53;2.90;;;1.70;90.70;;;;;;5013232;28;20502;-77
2020/12/26 01:52:08;;;;;;;3.53;2.65;;;1.80;90.60;;;;;;5013563;28;20018;-77
2020/12/26 01:54:34;;;;;;;5.45;3.15;;;2.00;90.60;;;;;;5013094;28;20030;-77
2020/12/26 01:57:00;;;;;;;5.45;2.63;;;2.10;89.50;;;;;;5014249;28;20026;-77
2020/12/26 01:59:28;;;;;;;5.35;2.80;;;2.00;88.80;;;;;;5014562;28;20425;-77
2020/12/26 02:01:57;;;;;;;4.30;2.78;;;2.00;87.80;;;;;;5014184;28;20025;-77
2020/12/26 02:04:23;;;;;;;2.75;2.35;;;2.10;88.10;;;;;;5013003;28;20026;-77
2020/12/26 02:06:53;;;;;;;3.55;2.97;;;2.10;87.70;;;;;;5014133;28;20494;-77
2020/12/26 02:09:20;;;;;;;5.00;3.05;;;2.20;87.90;;;;;;5014220;28;20030;-77
2020/12/26 02:11:46;;;;;;;4.38;3.40;;;2.20;88.00;;;;;;5014026;28;20049;-77
2020/12/26 02:14:11;;;;;;;3.80;3.30;;;2.20;88.50;;;;;;5014570;28;20477;-77
2020/12/26 02:16:48;;;;;;;4.07;3.17;;;2.10;87.10;;;;;;5013927;28;20025;-77
2020/12/26 02:19:16;;;;;;;5.18;2.78;;;2.20;86.80;;;;;;5014173;28;20025;-76
2020/12/26 02:21:42;;;;;;;3.63;3.25;;;2.30;86.50;;;;;;5013845;28;20030;-78
2020/12/26 02:24:09;;;;;;;3.53;2.97;;;2.30;87.00;;;;;;5013945;28;20029;-76
2020/12/26 02:26:35;;;;;;;3.15;2.70;;;2.30;85.10;;;;;;5013697;28;20025;-78
2020/12/26 02:29:02;;;;;;;3.67;2.95;;;2.30;85.40;;;;;;5014105;28;20025;-77
2020/12/26 02:31:27;;;;;;;4.07;3.20;;;2.40;85.20;;;;;;5013580;28;20101;-76
2020/12/26 02:33:53;;;;;;;4.97;3.10;;;2.10;84.20;;;;;;5013881;28;20108;-78
2020/12/26 02:36:19;;;;;;;4.97;2.97;;;2.00;86.00;;;;;;5013840;28;20581;-77
2020/12/26 02:38:45;;;;;;;5.30;2.80;;;1.90;85.90;;;;;;5012010;28;20264;-76
2020/12/26 02:41:11;;;;;;;5.40;2.78;;;1.80;84.30;;;;;;5013568;28;20421;-77
2020/12/26 02:43:37;;;;;;;4.43;2.35;;;1.80;85.20;;;;;;5013492;28;20529;-77
2020/12/26 02:46:03;;;;;;;3.03;2.70;;;2.00;85.80;;;;;;5013660;28;20133;-77
2020/12/26 02:48:29;;;;;;;4.85;3.08;;;2.00;85.60;;;;;;5013364;28;20097;-77
2020/12/26 02:50:55;;;;;;;5.45;3.38;;;2.00;86.20;;;;;;5012374;28;20030;-77
2020/12/26 02:53:22;;;;;;;5.18;2.80;;;2.00;87.40;;;;;;5012092;28;20022;-77
2020/12/26 02:55:48;;;;;;;2.95;2.65;;;2.00;87.20;;;;;;5012112;28;20026;-78
2020/12/26 02:58:14;;;;;;;3.20;2.72;;;2.00;86.60;;;;;;5012084;28;20080;-76
2020/12/26 03:00:40;;;;;;;3.45;3.10;;;1.80;87.50;;;;;;5013135;28;20026;-77
2020/12/26 03:03:06;;;;;;;5.20;3.75;;;1.40;88.10;;;;;;5013383;28;20492;-77
2020/12/26 03:05:32;;;;;;;5.78;3.45;;;1.50;90.20;;;;;;5013836;28;20057;-77
2020/12/26 03:07:57;;;;;;;6.75;3.38;;;1.80;90.20;;;;;;5012387;28;20057;-76
2020/12/26 03:10:23;;;;;;;3.45;3.13;;;1.70;90.30;;;;;;5013611;28;20033;-76
2020/12/26 03:12:49;;;;;;;4.55;3.22;;;1.90;90.80;;;;;;5013396;28;20064;-76
2020/12/26 03:15:15;;;;;;;6.38;2.95;;;2.00;90.30;;;;;;5012702;28;20041;-76
2020/12/26 03:17:41;;;;;;;7.07;5.43;;;2.00;90.20;;;;;;5013432;28;20084;-77
2020/12/26 03:20:07;;;;;;;3.85;3.45;;;2.10;90.00;;;;;;5011657;28;20033;-77
2020/12/26 03:22:33;;;;;;;5.53;2.80;;;2.00;89.60;;;;;;5013069;28;20033;-78
2020/12/26 03:24:59;;;;;;;3.20;2.88;;;1.80;90.30;;;;;;4994976;28;20025;-77
2020/12/26 03:27:25;;;;;;;4.35;3.40;;;1.70;90.70;;;;;;5011709;28;20477;-77
2020/12/26 03:29:51;;;;;;;8.57;3.28;;;1.90;91.20;;;;;;5012390;28;20022;-77
2020/12/26 03:32:17;;;;;;;3.88;2.95;;;2.10;91.20;;;;;;5012796;28;20014;-77
2020/12/26 03:34:43;;;;;;;5.50;3.17;;;2.10;90.80;;;;;;5011110;28;20397;-77
2020/12/26 03:37:09;;;;;;;6.50;3.60;;;2.10;91.10;;;;;;5012721;28;20025;-77
2020/12/26 03:39:35;;;;;;;4.18;3.42;;;2.10;91.00;;;;;;5012328;28;20028;-77
2020/12/26 03:42:12;;;;;;;4.10;3.42;;;2.00;91.30;;;;;;5011193;28;20037;-77
2020/12/26 03:44:39;;;;;;;4.88;3.60;;;1.90;91.30;;;;;;5012134;28;20498;-76
2020/12/26 03:47:06;;;;;;;3.78;3.00;;;1.90;91.50;;;;;;5011512;28;20516;-78
2020/12/26 03:49:32;;;;;;;5.28;3.63;;;2.00;91.60;;;;;;5025147;23;20070;-76
2020/12/26 03:51:57;;;;;;;3.92;3.08;;;1.90;92.10;;;;;;5011042;28;20018;-75
2020/12/26 03:54:23;;;;;;;5.82;3.67;;;1.90;92.30;;;;;;5012368;28;20026;-75
2020/12/26 03:56:49;;;;;;;5.22;3.42;;;1.80;91.70;;;;;;5010860;28;20385;-75
2020/12/26 03:59:15;;;;;;;5.18;3.97;;;1.70;91.80;;;;;;5012268;28;20056;-75
2020/12/26 04:01:41;;;;;;;4.22;3.20;;;1.80;92.00;;;;;;5010401;28;20034;-75
2020/12/26 04:04:07;;;;;;;5.18;3.50;;;1.80;92.00;;;;;;5012594;28;20096;-75
2020/12/26 04:06:33;;;;;;;4.05;3.40;;;1.80;91.90;;;;;;5011879;28;20456;-75
2020/12/26 04:08:59;;;;;;;5.53;3.65;;;1.80;92.10;;;;;;5010649;28;20026;-75
2020/12/26 04:11:25;;;;;;;9.10;4.43;;;1.80;91.80;;;;;;5010591;28;20026;-75
2020/12/26 04:13:51;;;;;;;5.03;3.95;;;1.90;91.80;;;;;;5012101;28;20021;-75
2020/12/26 04:16:17;;;;;;;5.43;4.07;;;1.80;92.30;;;;;;5010419;28;20500;-75
2020/12/26 04:18:43;;;;;;;5.22;4.00;;;1.80;92.20;;;;;;5012098;28;20029;-75
2020/12/26 04:21:09;;;;;;;5.53;3.80;;;1.80;91.80;;;;;;5010721;28;20018;-75
2020/12/26 04:23:35;;;;;;;5.68;4.40;;;1.60;92.10;;;;;;5011746;28;20076;-75
2020/12/26 04:26:01;;;;;;;7.53;4.53;;;1.40;92.10;;;;;;5010365;28;20030;-75
2020/12/26 04:28:27;;;;;;;6.53;4.32;;;1.40;93.10;;;;;;4994393;28;20041;-75
2020/12/26 04:30:53;;;;;;;7.72;4.13;;;1.40;92.50;;;;;;5010563;28;20438;-75
2020/12/26 04:33:19;;;;;;;9.75;4.95;;;1.50;93.00;;;;;;5011912;28;20034;-75
2020/12/26 04:35:45;;;;;;;6.57;4.40;;;1.50;92.80;;;;;;5010535;28;20029;-75
2020/12/26 04:38:10;;;;;;;8.10;4.72;;;1.60;92.50;;;;;;5011461;28;20504;-74
2020/12/26 04:40:37;;;;;;;7.50;5.28;;;1.60;92.40;;;;;;5011825;28;20022;-75
2020/12/26 04:43:06;;;;;;;7.47;5.70;;;1.50;92.30;;;;;;5012004;28;20137;-75
2020/12/26 04:45:33;;;;;;;11.25;5.63;;;1.50;92.30;;;;;;4994437;28;20087;-75
2020/12/26 04:48:04;;;;;;;8.63;5.15;;;1.50;92.80;;;;;;5010100;28;20524;-75
2020/12/26 04:50:32;;;;;;;6.57;4.80;;;1.60;92.50;;;;;;4993846;28;20398;-75
2020/12/26 04:53:01;;;;;;;6.97;5.10;;;1.50;92.60;;;;;;5011105;28;20029;-75
2020/12/26 04:55:35;;;;;;;6.30;4.57;;;1.50;92.70;;;;;;5010119;28;20022;-75
2020/12/26 04:58:08;;;;;;;8.00;4.97;;;1.50;92.60;;;;;;5009998;28;20030;-75
2020/12/26 05:00:35;;;;;;;9.45;5.18;;;1.50;92.60;;;;;;5009997;28;20056;-75
2020/12/26 05:03:06;;;;;;;8.77;5.40;;;1.50;92.60;;;;;;5011043;28;20033;-74
2020/12/26 05:05:36;;;;;;;8.70;5.85;;;1.50;93.00;;;;;;5009975;28;20522;-75
2020/12/26 05:08:09;;;;;;;9.32;5.90;;;1.50;92.60;;;;;;5009840;28;20026;-75
2020/12/26 05:10:36;;;;;;;11.45;5.07;;;1.50;93.00;;;;;;5011252;28;20417;-75
2020/12/26 05:13:07;;;;;;;7.35;5.22;;;1.60;92.50;;;;;;5009981;28;20018;-75
2020/12/26 05:15:34;;;;;;;7.67;5.30;;;1.40;92.30;;;;;;5011259;28;20178;-74
2020/12/26 05:18:01;;;;;;;13.48;5.50;;;1.50;92.90;;;;;;4993293;28;20033;-76
2020/12/26 05:20:28;;;;;;;7.20;5.47;;;1.50;92.70;;;;;;5011026;28;20032;-75
2020/12/26 05:23:16;;;;;;;8.50;5.70;;;1.30;92.50;;;;;;5009932;28;20033;-75
2020/12/26 05:25:51;;;;;;;9.02;5.63;;;1.20;93.20;;;;;;5011002;28;20022;-75
2020/12/26 05:28:20;;;;;;;11.30;6.68;;;1.40;93.40;;;;;;5009842;28;20034;-75
2020/12/26 05:30:50;;;;;;;11.52;6.20;;;1.50;92.90;;;;;;5010912;28;20117;-74
2020/12/26 05:33:16;;;;;;;9.75;6.88;;;1.40;92.90;;;;;;5011030;28;20026;-75
2020/12/26 05:35:44;;;;;;;8.98;6.47;;;1.30;92.80;;;;;;5009388;28;20517;-75
2020/12/26 05:38:26;;;;;;;10.50;7.25;;;1.20;92.80;;;;;;4993341;28;20048;-74
2020/12/26 05:40:53;;;;;;;;;;;1.20;93.70;;;;;;5009974;28;20030;-75
2020/12/26 05:43:21;;;;;;;12.85;8.10;;;1.20;94.00;;;;;;4993332;28;19910;-75
2020/12/26 05:45:47;;;;;;;12.98;7.70;;;1.10;93.80;;;;;;5009340;28;20072;-75
2020/12/26 05:48:15;;;;;;;15.27;8.32;;;0.90;94.00;;;;;;5009499;28;20041;-75
2020/12/26 05:50:42;;;;;;;15.57;8.95;;;1.00;94.30;;;;;;5010539;28;20060;-74
2020/12/26 05:53:08;;;;;;;12.40;8.43;;;1.00;94.40;;;;;;4993121;28;20022;-75
2020/12/26 05:55:42;;;;;;;14.63;8.95;;;0.70;94.30;;;;;;5010382;28;20015;-75
2020/12/26 05:58:09;;;;;;;17.10;10.00;;;0.70;95.50;;;;;;5010886;28;20101;-75
2020/12/26 06:00:37;;;;;;;15.30;9.63;;;0.90;95.40;;;;;;5009346;28;20043;-75
2020/12/26 06:03:22;;;;;;;13.73;8.55;;;0.90;95.20;;;;;;5009511;28;20056;-75
2020/12/26 06:05:49;;;;;;;18.90;9.55;;;1.00;95.60;;;;;;5010372;28;20037;-75
2020/12/26 06:08:16;;;;;;;15.90;10.05;;;0.90;95.20;;;;;;5010759;28;20026;-75
2020/12/26 06:10:48;;;;;;;15.15;10.00;;;0.90;95.20;;;;;;5009221;28;20026;-75
2020/12/26 06:13:16;;;;;;;17.75;9.45;;;0.70;96.50;;;;;;4993985;28;20018;-75
2020/12/26 06:15:52;;;;;;;13.85;9.32;;;0.90;96.90;;;;;;5012816;28;20049;-74
2020/12/26 06:18:20;;;;;;;16.15;9.73;;;0.80;96.40;;;;;;5014290;28;20022;-74
2020/12/26 06:20:47;;;;;;;14.95;9.05;;;0.80;97.20;;;;;;4996595;28;20029;-74
2020/12/26 06:23:31;;;;;;;15.30;9.68;;;0.80;96.80;;;;;;5013299;28;20397;-75
2020/12/26 06:25:57;;;;;;;17.83;10.45;;;0.70;97.60;;;;;;5013206;28;20056;-74
2020/12/26 06:28:31;;;;;;;13.20;9.00;;;0.80;98.00;;;;;;5013280;28;20393;-75
2020/12/26 06:31:03;;;;;;;20.02;10.10;;;0.80;97.30;;;;;;5013670;28;20034;-75
2020/12/26 06:33:37;;;;;;;14.23;9.25;;;0.80;97.60;;;;;;5013220;28;20056;-75
2020/12/26 06:36:04;;;;;;;14.38;9.55;;;0.70;97.70;;;;;;5012630;28;20041;-75
2020/12/26 06:38:30;;;;;;;12.18;7.97;;;0.60;98.10;;;;;;5012888;28;20022;-75
2020/12/26 06:41:01;;;;;;;13.85;9.23;;;0.50;98.20;;;;;;5012832;28;20504;-75
2020/12/26 06:43:39;;;;;;;16.85;8.32;;;0.60;98.20;;;;;;5012595;28;20055;-75
2020/12/26 06:46:14;;;;;;;16.30;10.05;;;0.80;98.60;;;;;;4996031;28;20030;-75
2020/12/26 06:48:44;;;;;;;29.58;11.48;;;0.90;97.70;;;;;;5013295;28;20535;-75
2020/12/26 06:51:33;;;;;;;15.10;8.98;;;0.80;95.80;;;;;;4996142;28;20132;-75
2020/12/26 06:54:01;;;;;;;15.32;9.45;;;0.70;97.00;;;;;;5009230;28;20091;-75
2020/12/26 06:59:15;;;;;;;13.77;9.02;;;0.70;96.50;;;;;;5013032;28;20125;-75
2020/12/26 07:01:45;;;;;;;11.75;8.05;;;0.80;96.30;;;;;;4986206;28;20069;-75
2020/12/26 07:04:15;;;;;;;13.65;7.25;;;0.60;95.30;;;;;;5012029;28;20464;-75
2020/12/26 07:06:48;;;;;;;11.80;8.50;;;0.60;95.00;;;;;;5013172;28;20018;-75
2020/12/26 07:09:17;;;;;;;12.18;7.38;;;0.30;95.60;;;;;;5011742;28;20021;-76
2020/12/26 07:11:49;;;;;;;12.65;8.52;;;0.30;96.20;;;;;;5013168;28;20033;-76
2020/12/26 07:14:33;;;;;;;13.93;9.32;;;0.50;96.00;;;;;;5012887;28;20054;-76
2020/12/26 07:17:06;;;;;;;11.88;7.57;;;0.30;95.80;;;;;;5013287;28;20080;-75
2020/12/26 07:19:42;;;;;;;12.05;8.00;;;0.30;95.20;;;;;;5011400;28;20025;-75
2020/12/26 07:22:16;;;;;;;10.68;7.18;;;0.10;95.80;;;;;;5011741;28;20053;-76
2020/12/26 07:24:45;;;;;;;10.43;7.78;;;0.20;96.60;;;;;;5010480;28;20032;-76
2020/12/26 07:27:30;;;;;;;12.18;8.30;;;0.30;95.90;;;;;;5012905;28;20064;-76
2020/12/26 07:30:02;;;;;;;16.42;8.25;;;0.20;95.60;;;;;;4995078;28;20034;-76
2020/12/26 07:32:37;;;;;;;13.25;7.18;;;0.20;95.90;;;;;;4995281;28;20026;-76
2020/12/26 07:35:04;;;;;;;16.40;8.25;;;0.00;95.50;;;;;;5011096;28;20022;-76
2020/12/26 07:37:30;;;;;;;13.10;7.60;;;-0.10;95.90;;;;;;4995019;28;20088;-75
2020/12/26 07:39:57;;;;;;;12.35;7.55;;;-0.10;96.20;;;;;;5012493;28;20030;-76
2020/12/26 07:42:23;;;;;;;9.15;6.45;;;0.00;95.50;;;;;;5011465;28;20025;-75
2020/12/26 07:44:49;;;;;;;10.55;6.47;;;0.20;95.30;;;;;;5012458;28;20404;-75
2020/12/26 07:47:15;;;;;;;15.05;7.15;;;0.30;94.10;;;;;;5011188;28;20041;-76
2020/12/26 07:49:41;;;;;;;11.02;7.15;;;0.30;94.80;;;;;;5012237;28;20030;-75
2020/12/26 07:52:08;;;;;;;10.23;7.47;;;0.40;94.50;;;;;;5012085;28;20033;-75
2020/12/26 07:54:34;;;;;;;14.63;7.35;;;0.50;93.80;;;;;;4994666;28;20033;-75
2020/12/26 07:57:00;;;;;;;22.92;12.70;;;0.70;93.90;;;;;;5010935;28;20032;-75
2020/12/26 07:59:26;;;;;;;22.55;12.38;;;0.60;93.80;;;;;;4994781;28;20161;-75
2020/12/26 08:01:54;;;;;;;18.60;8.80;;;0.60;94.40;;;;;;4994561;28;20026;-75
2020/12/26 08:04:20;;;;;;;18.27;10.77;;;0.40;94.20;;;;;;5012493;28;20029;-75
2020/12/26 08:06:48;;;;;;;17.10;8.65;;;0.40;95.10;;;;;;5012518;28;20478;-76
2020/12/26 08:09:15;;;;;;;17.67;9.05;;;0.40;94.70;;;;;;5012703;28;20402;-75
2020/12/26 08:11:42;;;;;;;17.70;9.35;;;0.30;95.40;;;;;;5012432;28;20427;-75
2020/12/26 08:14:08;;;;;;;13.23;9.23;;;0.50;94.70;;;;;;5010571;28;20026;-75
2020/12/26 08:16:35;;;;;;;14.35;9.23;;;0.30;95.20;;;;;;4994496;28;20433;-75
2020/12/26 08:19:03;;;;;;;14.88;7.50;;;0.40;95.00;;;;;;5010215;28;20022;-76
2020/12/26 08:21:29;;;;;;;11.55;7.05;;;0.40;94.90;;;;;;5010651;28;20021;-75
2020/12/26 08:23:56;;;;;;;13.50;9.40;;;0.60;94.40;;;;;;5010613;28;20076;-75
2020/12/26 08:26:23;;;;;;;11.80;8.05;;;0.70;94.30;;;;;;5010529;28;20032;-75
2020/12/26 08:28:50;;;;;;;14.40;8.57;;;0.60;94.20;;;;;;5010542;28;20018;-75
2020/12/26 08:31:21;;;;;;;13.27;7.80;;;0.70;94.40;;;;;;5011753;28;20045;-76
2020/12/26 08:33:48;;;;;;;13.55;8.30;;;0.80;94.00;;;;;;5011601;28;20036;-75
2020/12/26 08:36:27;;;;;;;13.75;7.72;;;0.80;93.40;;;;;;4994012;28;20022;-77
2020/12/26 08:39:00;;;;;;;10.25;6.82;;;0.90;93.30;;;;;;4991503;28;20490;-76
2020/12/26 08:41:26;;;;;;;13.00;7.07;;;0.80;92.70;;;;;;4992903;28;20426;-75
2020/12/26 08:43:53;;;;;;;11.30;7.65;;;0.70;92.20;;;;;;4978638;28;20105;-75
2020/12/26 08:46:22;;;;;;;10.38;7.50;;;0.60;92.90;;;;;;5010078;28;20104;-75
2020/12/26 08:48:49;;;;;;;12.00;8.13;;;0.40;92.70;;;;;;5011264;28;20041;-76
2020/12/26 08:51:21;;;;;;;13.90;8.68;;;0.40;93.40;;;;;;4993394;28;20026;-76
2020/12/26 08:53:48;;;;;;;23.98;13.70;;;0.40;94.10;;;;;;5011379;28;20026;-76
2020/12/26 08:56:14;;;;;;;18.50;10.10;;;0.60;93.60;;;;;;5011050;28;20022;-75
2020/12/26 08:58:50;;;;;;;16.65;8.02;;;0.50;93.40;;;;;;5010149;28;20029;-75
2020/12/26 09:01:16;;;;;;;11.38;7.65;;;0.40;93.30;;;;;;5009965;28;20057;-75
2020/12/26 09:03:48;;;;;;;14.52;6.70;;;0.30;93.50;;;;;;4993674;28;20030;-76
2020/12/26 09:06:15;;;;;;;13.10;8.43;;;0.10;93.70;;;;;;4993240;28;20088;-75
2020/12/26 09:08:41;;;;;;;14.30;7.32;;;0.10;94.00;;;;;;5011295;28;20053;-75
2020/12/26 09:11:09;;;;;;;16.05;8.00;;;0.10;93.80;;;;;;5011302;28;20624;-75
2020/12/26 09:13:39;;;;;;;15.07;8.15;;;0.40;94.00;;;;;;5012185;28;20049;-75
2020/12/26 09:16:08;;;;;;;11.80;7.40;;;0.20;93.60;;;;;;5009608;28;20018;-75
2020/12/26 09:18:45;;;;;;;14.52;7.57;;;0.10;94.60;;;;;;5009718;28;20385;-75
2020/12/26 09:21:24;;;;;;;12.27;7.47;;;0.20;94.30;;;;;;5009680;28;20072;-75
2020/12/26 09:23:53;;;;;;;12.40;7.55;;;0.60;94.80;;;;;;4993435;28;20120;-75
2020/12/26 09:26:25;;;;;;;8.48;6.07;;;0.70;93.20;;;;;;5010732;28;20053;-75
2020/12/26 09:29:02;;;;;;;9.80;5.82;;;0.60;91.60;;;;;;5009682;28;20033;-76
2020/12/26 09:31:35;;;;;;;9.15;5.63;;;0.50;91.90;;;;;;5010698;28;20033;-76
2020/12/26 09:34:20;;;;;;;11.48;6.63;;;0.50;92.10;;;;;;5009634;28;20025;-76
2020/12/26 09:36:46;;;;;;;11.63;5.60;;;0.30;91.50;;;;;;4993144;28;20602;-75
2020/12/26 09:39:12;;;;;;;12.68;7.85;;;0.40;91.70;;;;;;5010806;28;20018;-75
2020/12/26 09:41:49;;;;;;;14.27;7.35;;;0.40;92.10;;;;;;4993395;28;20022;-76
2020/12/26 09:44:16;;;;;;;9.85;6.60;;;0.80;92.30;;;;;;4992999;28;20022;-75
2020/12/26 09:46:43;;;;;;;12.52;6.85;;;1.00;91.20;;;;;;5010833;28;20034;-75
2020/12/26 09:49:09;;;;;;;12.85;6.45;;;1.30;89.70;;;;;;4995130;28;20038;-75
2020/12/26 09:51:35;;;;;;;11.40;6.30;;;2.00;89.40;;;;;;5013798;28;20425;-75
2020/12/26 09:54:01;;;;;;;8.25;5.25;;;2.90;82.30;;;;;;5030239;28;20025;-75
2020/12/26 09:56:27;;;;;;;8.05;5.30;;;3.00;80.40;;;;;;5015004;22;20034;-78
2020/12/26 09:58:53;;;;;;;7.60;5.07;;;3.00;79.40;;;;;;5001240;28;20378;-79
2020/12/26 10:01:21;;;;;;;9.23;5.70;;;3.30;79.30;;;;;;5001720;28;20081;-78
2020/12/26 10:03:48;;;;;;;13.93;5.68;;;3.80;77.10;;;;;;5000085;28;20493;-79
2020/12/26 10:06:16;;;;;;;8.18;4.43;;;4.10;74.80;;;;;;5002861;28;20039;-79
2020/12/26 10:08:43;;;;;;;7.68;4.82;;;4.60;73.70;;;;;;5001273;28;20026;-79
2020/12/26 10:11:10;;;;;;;8.20;5.15;;;5.10;72.10;;;;;;5002033;28;20379;-79
2020/12/26 10:13:36;;;;;;;7.32;5.28;;;5.70;70.30;;;;;;4984527;28;20549;-79
2020/12/26 10:16:02;;;;;;;9.80;6.55;;;6.50;66.80;;;;;;5001298;28;20069;-78
2020/12/26 10:18:28;;;;;;;8.82;6.57;;;6.10;64.80;;;;;;5000560;28;20022;-79
2020/12/26 10:20:53;;;;;;;15.35;4.47;;;5.10;70.30;;;;;;5001021;28;20470;-79
2020/12/26 10:23:19;;;;;;;7.18;5.57;;;6.20;68.10;;;;;;5002906;28;20045;-79
2020/12/26 10:25:45;;;;;;;8.05;4.75;;;6.00;67.40;;;;;;5017625;28;20393;-78
2020/12/26 10:28:11;;;;;;;8.90;5.43;;;5.40;65.40;;;;;;5001112;28;20037;-78
2020/12/26 10:30:36;;;;;;;7.28;4.97;;;5.00;68.70;;;;;;5000170;28;20030;-78
2020/12/26 10:33:02;;;;;;;10.60;4.60;;;5.30;67.60;;;;;;4987733;28;20046;-78
2020/12/26 10:35:28;;;;;;;12.25;4.20;;;5.30;66.30;;;;;;5006249;28;20014;-79
2020/12/26 10:37:54;;;;;;;17.83;5.10;;;5.40;66.20;;;;;;5002405;28;20485;-79
2020/12/26 10:40:20;;;;;;;10.77;4.32;;;5.70;66.10;;;;;;5001484;28;20026;-79
2020/12/26 10:42:46;;;;;;;12.77;4.72;;;5.90;65.80;;;;;;5001798;28;20026;-79
2020/12/26 10:45:11;;;;;;;5.90;3.75;;;5.40;64.90;;;;;;5003006;28;20030;-79
2020/12/26 10:47:37;;;;;;;8.32;4.25;;;5.40;66.20;;;;;;4983763;28;20086;-79
2020/12/26 10:50:04;;;;;;;8.35;4.40;;;5.80;64.40;;;;;;5000961;28;20034;-78
2020/12/26 10:52:32;;;;;;;10.55;4.72;;;6.50;63.30;;;;;;5001612;28;20025;-79
2020/12/26 10:54:58;;;;;;;6.82;4.72;;;6.10;61.70;;;;;;4983989;28;20106;-79
2020/12/26 10:57:24;;;;;;;9.70;5.00;;;5.00;63.70;;;;;;4999585;28;20117;-78
2020/12/26 10:59:50;;;;;;;8.65;3.90;;;4.10;67.90;;;;;;5001381;28;20026;-79
2020/12/26 11:02:15;;;;;;;6.28;4.40;;;4.80;67.50;;;;;;4999291;28;20030;-79
2020/12/26 11:04:41;;;;;;;7.68;3.83;;;6.00;66.20;;;;;;4983122;28;20022;-79
2020/12/26 11:07:07;;;;;;;8.95;4.00;;;7.40;61.20;;;;;;4984725;28;20088;-79
2020/12/26 11:09:33;;;;;;;4.63;3.75;;;8.20;57.40;;;;;;4982908;28;20027;-79
2020/12/26 11:11:58;;;;;;;7.13;4.03;;;8.80;56.20;;;;;;4999854;28;20037;-79
2020/12/26 11:14:24;;;;;;;9.95;3.83;;;9.10;55.10;;;;;;5002477;28;20019;-79
2020/12/26 11:16:52;;;;;;;11.40;4.18;;;9.70;53.90;;;;;;5001404;28;20065;-79
2020/12/26 11:19:18;;;;;;;9.32;4.03;;;9.40;52.70;;;;;;5000686;28;20049;-79
2020/12/26 11:21:44;;;;;;;18.10;3.42;;;9.50;53.00;;;;;;5000611;28;20097;-79
2020/12/26 11:24:12;;;;;;;9.55;4.00;;;9.60;51.60;;;;;;4998868;28;20030;-78
2020/12/26 11:26:38;;;;;;;17.02;4.57;;;8.70;52.40;;;;;;4999655;28;20050;-78
2020/12/26 11:29:04;;;;;;;11.05;4.22;;;8.40;55.00;;;;;;4983525;28;20050;-79
2020/12/26 11:31:30;;;;;;;6.35;3.97;;;8.30;54.60;;;;;;5000315;28;20026;-79
2020/12/26 11:33:56;;;;;;;9.75;4.65;;;8.60;54.00;;;;;;4999393;28;20423;-79
2020/12/26 11:36:26;;;;;;;8.68;4.47;;;9.10;53.70;;;;;;4984857;28;20049;-79
2020/12/26 11:38:53;;;;;;;9.18;4.43;;;9.40;52.90;;;;;;4983732;28;20018;-78
2020/12/26 11:41:27;;;;;;;10.30;4.18;;;8.40;52.70;;;;;;4999808;28;20054;-78
2020/12/26 11:43:53;;;;;;;7.80;4.28;;;7.50;54.70;;;;;;4999656;28;20077;-78
2020/12/26 11:46:20;;;;;;;9.30;5.10;;;6.60;57.70;;;;;;4999447;28;20095;-78
2020/12/26 11:48:45;;;;;;;11.18;4.22;;;6.50;58.80;;;;;;4999518;28;20474;-79
2020/12/26 11:51:11;;;;;;;22.45;5.35;;;6.70;58.60;;;;;;4982068;28;20033;-79
2020/12/26 11:53:38;;;;;;;9.30;3.80;;;6.70;59.10;;;;;;4983763;28;20109;-78
2020/12/26 11:56:14;;;;;;;12.80;4.78;;;6.50;59.50;;;;;;4998983;28;20026;-78
2020/12/26 11:58:41;;;;;;;11.50;3.70;;;5.60;60.20;;;;;;4982641;28;20022;-78
2020/12/26 12:01:07;;;;;;;18.35;3.92;;;4.90;60.60;;;;;;5000890;28;20026;-78
2020/12/26 12:03:34;;;;;;;15.27;3.88;;;4.40;62.70;;;;;;4998566;28;20026;-78
2020/12/26 12:06:00;;;;;;;21.67;3.92;;;4.00;65.00;;;;;;4983491;28;20512;-78
2020/12/26 12:08:26;;;;;;;29.55;4.22;;;3.90;65.50;;;;;;4998415;28;20030;-78
2020/12/26 12:10:52;;;;;;;10.43;3.95;;;3.90;64.40;;;;;;4999516;28;20033;-78
2020/12/26 12:13:17;;;;;;;13.15;4.57;;;3.80;65.40;;;;;;4999220;28;20032;-78
2020/12/26 12:15:43;;;;;;;12.57;3.83;;;3.70;67.00;;;;;;4984361;28;20122;-78
2020/12/26 12:18:09;;;;;;;10.63;3.33;;;3.60;66.20;;;;;;5001200;28;20026;-79
2020/12/26 12:20:35;;;;;;;12.27;3.40;;;3.60;65.90;;;;;;5002247;28;20030;-78
2020/12/26 12:23:01;;;;;;;13.93;3.30;;;3.70;65.10;;;;;;4984327;28;20041;-78
2020/12/26 12:25:28;;;;;;;17.38;3.65;;;3.70;65.50;;;;;;5002438;28;20030;-78
2020/12/26 12:27:55;;;;;;;10.18;3.40;;;3.50;65.10;;;;;;5001075;28;20034;-78
2020/12/26 12:30:23;;;;;;;31.67;3.85;;;3.60;65.70;;;;;;4998428;28;20031;-78
2020/12/26 12:32:49;;;;;;;8.63;3.22;;;3.60;65.80;;;;;;5000421;28;20050;-79
2020/12/26 12:35:16;;;;;;;15.35;4.55;;;3.40;65.30;;;;;;4999016;28;20077;-78
2020/12/26 12:37:46;;;;;;;16.52;3.75;;;3.20;67.20;;;;;;4998844;28;20101;-78
2020/12/26 12:40:12;;;;;;;17.30;4.57;;;3.20;66.50;;;;;;4998057;28;20030;-78
2020/12/26 12:42:37;;;;;;;8.93;2.88;;;3.50;65.90;;;;;;4996735;28;20397;-78
2020/12/26 12:45:03;;;;;;;46.50;5.20;;;3.30;65.80;;;;;;4998152;28;20022;-78
2020/12/26 12:47:29;;;;;;;16.67;3.95;;;3.60;67.30;;;;;;4997602;28;20038;-78
2020/12/26 12:49:55;;;;;;;28.13;3.72;;;3.60;65.20;;;;;;4981676;28;20304;-79
2020/12/26 12:52:21;;;;;;;15.57;4.05;;;3.80;65.10;;;;;;4997412;28;20018;-78
2020/12/26 12:54:47;;;;;;;19.63;3.72;;;3.70;64.00;;;;;;4983827;28;20526;-78
2020/12/26 12:57:13;;;;;;;28.20;3.80;;;3.40;64.20;;;;;;4999598;28;20030;-78